sensor_id;sensor_type;location;lat;lon;timestamp;pressure;altitude;pressure_sealevel;temperature;humidity
10921;BME280;5513;50.580;8.818;2022-09-13T00:01:20;98662.19;;;16.37;100.00
10921;BME280;5513;50.580;8.818;2022-09-13T00:03:52;98659.09;;;16.42;100.00
10921;BME280;5513;50.580;8.818;2022-09-13T00:06:21;98672.34;;;16.34;100.00
10921;BME280;5513;50.580;8.818;2022-09-13T00:08:50;98661.78;;;16.42;100.00
10921;BME280;5513;50.580;8.818;2022-09-13T00:11:21;98667.59;;;16.27;100.00
10921;BME280;5513;50.580;8.818;2022-09-13T00:13:52;98659.03;;;16.24;100.00
10921;BME280;5513;50.580;8.818;2022-09-13T00:16:24;98649.06;;;16.16;100.00
10921;BME280;5513;50.580;8.818;2022-09-13T00:18:54;98641.47;;;16.21;100.00
10921;BME280;5513;50.580;8.818;2022-09-13T00:21:24;98643.47;;;16.00;100.00
10921;BME280;5513;50.580;8.818;2022-09-13T00:23:54;98650.38;;;16.02;100.00
10921;BME280;5513;50.580;8.818;2022-09-13T00:26:24;98646.84;;;16.12;100.00
10921;BME280;5513;50.580;8.818;2022-09-13T00:28:56;98649.91;;;16.17;100.00
10921;BME280;5513;50.580;8.818;2022-09-13T00:31:26;98637.69;;;16.14;100.00
10921;BME280;5513;50.580;8.818;2022-09-13T00:33:57;98627.88;;;16.05;100.00
10921;BME280;5513;50.580;8.818;2022-09-13T00:36:26;98632.19;;;16.16;100.00
10921;BME280;5513;50.580;8.818;2022-09-13T00:38:54;98623.53;;;16.04;100.00
10921;BME280;5513;50.580;8.818;2022-09-13T00:41:22;98610.16;;;16.04;100.00
10921;BME280;5513;50.580;8.818;2022-09-13T00:43:54;98599.81;;;16.19;100.00
10921;BME280;5513;50.580;8.818;2022-09-13T00:46:28;98589.97;;;16.47;100.00
10921;BME280;5513;50.580;8.818;2022-09-13T00:49:03;98569.59;;;16.18;100.00
10921;BME280;5513;50.580;8.818;2022-09-13T00:51:40;98578.34;;;16.11;100.00
10921;BME280;5513;50.580;8.818;2022-09-13T00:54:11;98576.44;;;16.03;100.00
10921;BME280;5513;50.580;8.818;2022-09-13T00:56:45;98569.91;;;16.15;100.00
10921;BME280;5513;50.580;8.818;2022-09-13T00:59:19;98586.06;;;15.77;100.00
10921;BME280;5513;50.580;8.818;2022-09-13T01:01:53;98595.91;;;15.76;100.00
10921;BME280;5513;50.580;8.818;2022-09-13T01:04:24;98599.13;;;15.80;100.00
10921;BME280;5513;50.580;8.818;2022-09-13T01:06:56;98602.41;;;15.73;100.00
10921;BME280;5513;50.580;8.818;2022-09-13T01:09:26;98590.91;;;15.63;100.00
10921;BME280;5513;50.580;8.818;2022-09-13T01:12:00;98600.28;;;15.58;100.00
10921;BME280;5513;50.580;8.818;2022-09-13T01:14:32;98586.66;;;15.41;100.00
10921;BME280;5513;50.580;8.818;2022-09-13T01:17:01;98588.50;;;15.41;100.00
10921;BME280;5513;50.580;8.818;2022-09-13T01:19:30;98592.84;;;15.52;100.00
10921;BME280;5513;50.580;8.818;2022-09-13T01:22:12;98588.09;;;15.36;100.00
10921;BME280;5513;50.580;8.818;2022-09-13T01:28:02;98587.50;;;15.42;100.00
10921;BME280;5513;50.580;8.818;2022-09-13T01:30:41;98588.63;;;15.49;100.00
10921;BME280;5513;50.580;8.818;2022-09-13T01:33:38;98589.19;;;15.43;100.00
10921;BME280;5513;50.580;8.818;2022-09-13T01:39:08;98573.31;;;15.61;100.00
10921;BME280;5513;50.580;8.818;2022-09-13T01:41:53;98571.59;;;15.69;100.00
10921;BME280;5513;50.580;8.818;2022-09-13T01:44:37;98568.94;;;15.60;100.00
10921;BME280;5513;50.580;8.818;2022-09-13T01:47:17;98574.88;;;15.34;100.00
10921;BME280;5513;50.580;8.818;2022-09-13T01:50:00;98586.53;;;15.33;100.00
10921;BME280;5513;50.580;8.818;2022-09-13T01:52:40;98596.97;;;15.17;100.00
10921;BME280;5513;50.580;8.818;2022-09-13T01:55:17;98575.03;;;15.13;100.00
10921;BME280;5513;50.580;8.818;2022-09-13T01:57:53;98576.31;;;15.00;100.00
10921;BME280;5513;50.580;8.818;2022-09-13T02:00:25;98566.63;;;14.99;100.00
10921;BME280;5513;50.580;8.818;2022-09-13T02:03:02;98559.84;;;15.24;100.00
10921;BME280;5513;50.580;8.818;2022-09-13T02:05:37;98561.97;;;15.20;100.00
10921;BME280;5513;50.580;8.818;2022-09-13T02:08:09;98572.22;;;15.05;100.00
10921;BME280;5513;50.580;8.818;2022-09-13T02:10:41;98560.00;;;15.22;100.00
10921;BME280;5513;50.580;8.818;2022-09-13T02:13:18;98562.97;;;15.19;100.00
10921;BME280;5513;50.580;8.818;2022-09-13T02:15:52;98566.78;;;14.87;100.00
10921;BME280;5513;50.580;8.818;2022-09-13T02:18:25;98576.72;;;14.76;100.00
10921;BME280;5513;50.580;8.818;2022-09-13T02:21:01;98582.03;;;14.66;100.00
10921;BME280;5513;50.580;8.818;2022-09-13T02:23:37;98589.06;;;14.67;100.00
10921;BME280;5513;50.580;8.818;2022-09-13T02:26:09;98601.97;;;14.81;100.00
10921;BME280;5513;50.580;8.818;2022-09-13T02:28:42;98586.00;;;14.91;100.00
10921;BME280;5513;50.580;8.818;2022-09-13T02:31:18;98584.47;;;14.88;100.00
10921;BME280;5513;50.580;8.818;2022-09-13T02:33:56;98579.38;;;14.85;100.00
10921;BME280;5513;50.580;8.818;2022-09-13T02:36:30;98579.97;;;14.99;100.00
10921;BME280;5513;50.580;8.818;2022-09-13T02:39:02;98574.88;;;14.76;100.00
10921;BME280;5513;50.580;8.818;2022-09-13T02:41:42;98576.44;;;14.69;100.00
10921;BME280;5513;50.580;8.818;2022-09-13T02:44:21;98578.53;;;14.75;100.00
10921;BME280;5513;50.580;8.818;2022-09-13T02:47:03;98584.31;;;14.80;100.00
10921;BME280;5513;50.580;8.818;2022-09-13T02:49:43;98585.53;;;14.67;100.00
10921;BME280;5513;50.580;8.818;2022-09-13T02:52:22;98585.00;;;14.73;100.00
10921;BME280;5513;50.580;8.818;2022-09-13T02:54:58;98593.72;;;14.94;100.00
10921;BME280;5513;50.580;8.818;2022-09-13T02:57:36;98594.28;;;14.98;100.00
10921;BME280;5513;50.580;8.818;2022-09-13T03:00:07;98596.97;;;14.98;100.00
10921;BME280;5513;50.580;8.818;2022-09-13T03:02:38;98595.81;;;14.91;100.00
10921;BME280;5513;50.580;8.818;2022-09-13T03:05:11;98589.66;;;14.90;100.00
10921;BME280;5513;50.580;8.818;2022-09-13T03:07:39;98591.16;;;14.73;100.00
10921;BME280;5513;50.580;8.818;2022-09-13T03:10:10;98583.03;;;14.75;100.00
10921;BME280;5513;50.580;8.818;2022-09-13T03:13:09;98593.81;;;14.64;100.00
10921;BME280;5513;50.580;8.818;2022-09-13T03:15:50;98596.63;;;14.72;100.00
10921;BME280;5513;50.580;8.818;2022-09-13T03:18:43;98596.78;;;14.80;100.00
10921;BME280;5513;50.580;8.818;2022-09-13T03:21:31;98604.94;;;14.88;100.00
10921;BME280;5513;50.580;8.818;2022-09-13T03:24:07;98594.13;;;14.80;100.00
10921;BME280;5513;50.580;8.818;2022-09-13T03:26:50;98586.69;;;14.93;100.00
10921;BME280;5513;50.580;8.818;2022-09-13T03:29:28;98579.97;;;14.99;100.00
10921;BME280;5513;50.580;8.818;2022-09-13T03:32:16;98581.34;;;15.03;100.00
10921;BME280;5513;50.580;8.818;2022-09-13T03:34:51;98579.97;;;15.08;100.00
10921;BME280;5513;50.580;8.818;2022-09-13T03:37:28;98580.09;;;15.16;100.00
10921;BME280;5513;50.580;8.818;2022-09-13T03:40:04;98581.09;;;15.06;100.00
10921;BME280;5513;50.580;8.818;2022-09-13T03:42:41;98568.88;;;15.13;100.00
10921;BME280;5513;50.580;8.818;2022-09-13T03:45:12;98573.09;;;15.25;100.00
10921;BME280;5513;50.580;8.818;2022-09-13T03:47:44;98571.28;;;15.06;100.00
10921;BME280;5513;50.580;8.818;2022-09-13T03:50:17;98570.00;;;15.20;100.00
10921;BME280;5513;50.580;8.818;2022-09-13T03:52:55;98561.00;;;15.21;100.00
10921;BME280;5513;50.580;8.818;2022-09-13T03:55:26;98568.16;;;15.30;100.00
10921;BME280;5513;50.580;8.818;2022-09-13T03:57:54;98563.25;;;15.35;100.00
10921;BME280;5513;50.580;8.818;2022-09-13T04:00:23;98571.13;;;15.27;100.00
10921;BME280;5513;50.580;8.818;2022-09-13T04:02:51;98575.88;;;15.24;100.00
10921;BME280;5513;50.580;8.818;2022-09-13T04:05:21;98570.69;;;15.12;100.00
10921;BME280;5513;50.580;8.818;2022-09-13T04:07:51;98570.41;;;15.35;100.00
10921;BME280;5513;50.580;8.818;2022-09-13T04:10:19;98577.66;;;15.42;100.00
10921;BME280;5513;50.580;8.818;2022-09-13T04:12:49;98566.03;;;15.24;100.00
10921;BME280;5513;50.580;8.818;2022-09-13T04:15:22;98559.44;;;15.28;100.00
10921;BME280;5513;50.580;8.818;2022-09-13T04:17:51;98570.41;;;15.25;100.00
10921;BME280;5513;50.580;8.818;2022-09-13T04:20:19;98564.63;;;15.30;100.00
10921;BME280;5513;50.580;8.818;2022-09-13T04:22:55;98576.31;;;15.19;100.00
10921;BME280;5513;50.580;8.818;2022-09-13T04:25:24;98575.47;;;15.28;100.00
10921;BME280;5513;50.580;8.818;2022-09-13T04:27:55;98570.81;;;15.21;100.00
10921;BME280;5513;50.580;8.818;2022-09-13T04:30:26;98561.00;;;15.21;100.00
10921;BME280;5513;50.580;8.818;2022-09-13T04:32:55;98563.97;;;15.08;100.00
10921;BME280;5513;50.580;8.818;2022-09-13T04:35:25;98565.50;;;15.11;100.00
10921;BME280;5513;50.580;8.818;2022-09-13T04:37:56;98567.34;;;15.01;100.00
10921;BME280;5513;50.580;8.818;2022-09-13T04:40:24;98566.78;;;14.87;100.00
10921;BME280;5513;50.580;8.818;2022-09-13T04:42:53;98557.66;;;15.00;100.00
10921;BME280;5513;50.580;8.818;2022-09-13T04:45:21;98570.97;;;15.09;100.00
10921;BME280;5513;50.580;8.818;2022-09-13T04:47:50;98561.31;;;15.08;100.00
10921;BME280;5513;50.580;8.818;2022-09-13T04:50:19;98571.81;;;15.10;100.00
10921;BME280;5513;50.580;8.818;2022-09-13T04:52:53;98570.28;;;15.17;100.00
10921;BME280;5513;50.580;8.818;2022-09-13T04:55:26;98568.84;;;15.23;100.00
10921;BME280;5513;50.580;8.818;2022-09-13T04:57:54;98568.72;;;15.24;100.00
10921;BME280;5513;50.580;8.818;2022-09-13T05:00:23;98567.31;;;15.20;100.00
10921;BME280;5513;50.580;8.818;2022-09-13T05:02:55;98566.19;;;15.13;100.00
10921;BME280;5513;50.580;8.818;2022-09-13T05:05:24;98570.66;;;15.32;100.00
10921;BME280;5513;50.580;8.818;2022-09-13T05:07:54;98570.81;;;15.30;100.00
10921;BME280;5513;50.580;8.818;2022-09-13T05:10:26;98566.88;;;15.25;100.00
10921;BME280;5513;50.580;8.818;2022-09-13T05:12:54;98571.25;;;15.26;100.00
10921;BME280;5513;50.580;8.818;2022-09-13T05:15:27;98568.69;;;15.34;100.00
10921;BME280;5513;50.580;8.818;2022-09-13T05:17:56;98561.69;;;15.23;100.00
10921;BME280;5513;50.580;8.818;2022-09-13T05:20:24;98575.00;;;15.42;100.00
10921;BME280;5513;50.580;8.818;2022-09-13T05:22:54;98575.13;;;15.51;100.00
10921;BME280;5513;50.580;8.818;2022-09-13T05:25:23;98575.56;;;15.56;100.00
10921;BME280;5513;50.580;8.818;2022-09-13T05:27:53;98567.97;;;15.51;100.00
10921;BME280;5513;50.580;8.818;2022-09-13T05:30:22;98568.81;;;15.52;100.00
10921;BME280;5513;50.580;8.818;2022-09-13T05:32:50;98576.09;;;15.59;100.00
10921;BME280;5513;50.580;8.818;2022-09-13T05:35:18;98574.16;;;15.61;100.00
10921;BME280;5513;50.580;8.818;2022-09-13T05:37:48;98569.66;;;15.62;100.00
10921;BME280;5513;50.580;8.818;2022-09-13T05:40:17;98574.41;;;15.58;100.00
10921;BME280;5513;50.580;8.818;2022-09-13T05:42:46;98574.59;;;15.37;100.00
10921;BME280;5513;50.580;8.818;2022-09-13T05:45:18;98571.22;;;15.45;100.00
10921;BME280;5513;50.580;8.818;2022-09-13T05:47:49;98579.78;;;15.49;100.00
10921;BME280;5513;50.580;8.818;2022-09-13T05:50:18;98573.88;;;15.55;100.00
10921;BME280;5513;50.580;8.818;2022-09-13T05:53:07;98574.56;;;15.66;100.00
10921;BME280;5513;50.580;8.818;2022-09-13T05:55:35;98567.38;;;15.77;100.00
10921;BME280;5513;50.580;8.818;2022-09-13T05:58:05;98572.66;;;15.96;100.00
10921;BME280;5513;50.580;8.818;2022-09-13T06:00:35;98568.25;;;16.05;100.00
10921;BME280;5513;50.580;8.818;2022-09-13T06:03:03;98573.31;;;16.08;100.00
10921;BME280;5513;50.580;8.818;2022-09-13T06:05:32;98576.44;;;16.03;100.00
10921;BME280;5513;50.580;8.818;2022-09-13T06:08:01;98576.66;;;16.10;100.00
10921;BME280;5513;50.580;8.818;2022-09-13T06:10:31;98584.81;;;16.08;100.00
10921;BME280;5513;50.580;8.818;2022-09-13T06:13:00;98586.88;;;16.24;100.00
10921;BME280;5513;50.580;8.818;2022-09-13T06:15:28;98594.16;;;16.31;100.00
10921;BME280;5513;50.580;8.818;2022-09-13T06:17:58;98597.25;;;16.27;100.00
10921;BME280;5513;50.580;8.818;2022-09-13T06:20:27;98603.28;;;16.29;100.00
10921;BME280;5513;50.580;8.818;2022-09-13T06:22:55;98606.22;;;16.36;100.00
10921;BME280;5513;50.580;8.818;2022-09-13T06:25:23;98604.88;;;16.49;100.00
10921;BME280;5513;50.580;8.818;2022-09-13T06:27:52;98602.97;;;16.42;100.00
10921;BME280;5513;50.580;8.818;2022-09-13T06:30:20;98603.34;;;16.47;100.00
10921;BME280;5513;50.580;8.818;2022-09-13T06:32:49;98601.97;;;16.43;100.00
10921;BME280;5513;50.580;8.818;2022-09-13T06:35:21;98600.31;;;16.59;100.00
10921;BME280;5513;50.580;8.818;2022-09-13T06:37:54;98608.78;;;16.27;100.00
10921;BME280;5513;50.580;8.818;2022-09-13T06:40:24;98606.06;;;16.37;100.00
10921;BME280;5513;50.580;8.818;2022-09-13T06:42:53;98614.13;;;16.27;100.00
10921;BME280;5513;50.580;8.818;2022-09-13T06:45:23;98619.53;;;16.18;100.00
10921;BME280;5513;50.580;8.818;2022-09-13T06:47:52;98616.22;;;16.34;100.00
10921;BME280;5513;50.580;8.818;2022-09-13T06:50:23;98613.16;;;16.56;100.00
10921;BME280;5513;50.580;8.818;2022-09-13T06:52:51;98617.81;;;16.81;100.00
10921;BME280;5513;50.580;8.818;2022-09-13T06:55:20;98616.16;;;16.80;100.00
10921;BME280;5513;50.580;8.818;2022-09-13T06:57:48;98614.84;;;16.84;100.00
10921;BME280;5513;50.580;8.818;2022-09-13T07:00:16;98613.00;;;16.85;100.00
10921;BME280;5513;50.580;8.818;2022-09-13T07:02:49;98621.19;;;16.83;100.00
10921;BME280;5513;50.580;8.818;2022-09-13T07:05:18;98613.16;;;16.83;100.00
10921;BME280;5513;50.580;8.818;2022-09-13T07:07:48;98604.88;;;16.77;100.00
10921;BME280;5513;50.580;8.818;2022-09-13T07:10:17;98611.53;;;16.73;100.00
10921;BME280;5513;50.580;8.818;2022-09-13T07:12:46;98610.72;;;16.63;100.00
10921;BME280;5513;50.580;8.818;2022-09-13T07:15:17;98602.41;;;16.66;100.00
10921;BME280;5513;50.580;8.818;2022-09-13T07:17:46;98591.81;;;16.74;100.00
10921;BME280;5513;50.580;8.818;2022-09-13T07:20:14;98593.69;;;16.64;100.00
10921;BME280;5513;50.580;8.818;2022-09-13T07:22:43;98592.25;;;16.69;100.00
10921;BME280;5513;50.580;8.818;2022-09-13T07:25:13;98579.63;;;16.62;100.00
10921;BME280;5513;50.580;8.818;2022-09-13T07:27:42;98579.47;;;16.63;100.00
10921;BME280;5513;50.580;8.818;2022-09-13T07:30:10;98578.09;;;16.59;100.00
10921;BME280;5513;50.580;8.818;2022-09-13T07:32:39;98589.09;;;16.56;100.00
10921;BME280;5513;50.580;8.818;2022-09-13T07:35:08;98587.63;;;16.44;100.00
10921;BME280;5513;50.580;8.818;2022-09-13T07:37:37;98581.75;;;16.58;100.00
10921;BME280;5513;50.580;8.818;2022-09-13T07:40:07;98588.34;;;16.36;100.00
10921;BME280;5513;50.580;8.818;2022-09-13T07:42:38;98594.22;;;16.40;100.00
10921;BME280;5513;50.580;8.818;2022-09-13T07:45:08;98598.16;;;16.45;100.00
10921;BME280;5513;50.580;8.818;2022-09-13T07:47:38;98582.28;;;16.44;100.00
10921;BME280;5513;50.580;8.818;2022-09-13T07:50:07;98571.91;;;16.58;100.00
10921;BME280;5513;50.580;8.818;2022-09-13T07:52:36;98576.88;;;16.53;100.00
10921;BME280;5513;50.580;8.818;2022-09-13T07:55:06;98579.41;;;16.27;100.00
10921;BME280;5513;50.580;8.818;2022-09-13T07:57:35;98583.00;;;16.36;100.00
10921;BME280;5513;50.580;8.818;2022-09-13T08:00:08;98588.16;;;16.47;100.00
10921;BME280;5513;50.580;8.818;2022-09-13T08:02:39;98580.88;;;16.40;100.00
10921;BME280;5513;50.580;8.818;2022-09-13T08:05:10;98586.72;;;16.53;100.00
10921;BME280;5513;50.580;8.818;2022-09-13T08:07:41;98587.19;;;16.66;100.00
10921;BME280;5513;50.580;8.818;2022-09-13T08:10:12;98584.56;;;16.84;100.00
10921;BME280;5513;50.580;8.818;2022-09-13T08:12:40;98580.31;;;16.91;100.00
10921;BME280;5513;50.580;8.818;2022-09-13T08:15:11;98573.28;;;16.90;100.00
10921;BME280;5513;50.580;8.818;2022-09-13T08:17:40;98578.59;;;17.08;100.00
10921;BME280;5513;50.580;8.818;2022-09-13T08:20:09;98570.38;;;17.01;100.00
10921;BME280;5513;50.580;8.818;2022-09-13T08:22:37;98561.56;;;17.09;100.00
10921;BME280;5513;50.580;8.818;2022-09-13T08:25:06;98573.31;;;17.16;100.00
10921;BME280;5513;50.580;8.818;2022-09-13T08:27:35;98572.88;;;17.21;100.00
10921;BME280;5513;50.580;8.818;2022-09-13T08:30:06;98579.81;;;17.31;100.00
10921;BME280;5513;50.580;8.818;2022-09-13T08:32:39;98575.63;;;17.29;100.00
10921;BME280;5513;50.580;8.818;2022-09-13T08:35:07;98576.13;;;17.50;100.00
10921;BME280;5513;50.580;8.818;2022-09-13T08:37:36;98565.91;;;17.54;100.00
10921;BME280;5513;50.580;8.818;2022-09-13T08:40:05;98567.97;;;17.60;100.00
10921;BME280;5513;50.580;8.818;2022-09-13T08:42:50;98565.91;;;17.54;100.00
10921;BME280;5513;50.580;8.818;2022-09-13T08:45:21;98570.44;;;17.71;100.00
10921;BME280;5513;50.580;8.818;2022-09-13T08:47:54;98564.13;;;17.80;100.00
10921;BME280;5513;50.580;8.818;2022-09-13T08:50:28;98559.31;;;17.92;100.00
10921;BME280;5513;50.580;8.818;2022-09-13T08:53:05;98556.81;;;18.24;100.00
10921;BME280;5513;50.580;8.818;2022-09-13T08:55:47;98556.13;;;18.22;100.00
10921;BME280;5513;50.580;8.818;2022-09-13T08:58:28;98555.75;;;18.59;100.00
10921;BME280;5513;50.580;8.818;2022-09-13T09:01:02;98559.72;;;18.47;100.00
10921;BME280;5513;50.580;8.818;2022-09-13T09:03:41;98554.56;;;18.62;100.00
10921;BME280;5513;50.580;8.818;2022-09-13T09:06:15;98559.25;;;18.60;100.00
10921;BME280;5513;50.580;8.818;2022-09-13T09:08:47;98559.34;;;18.76;100.00
10921;BME280;5513;50.580;8.818;2022-09-13T09:11:24;98550.47;;;19.08;100.00
10921;BME280;5513;50.580;8.818;2022-09-13T09:14:01;98547.13;;;19.14;100.00
10921;BME280;5513;50.580;8.818;2022-09-13T09:16:35;98541.75;;;19.14;100.00
10921;BME280;5513;50.580;8.818;2022-09-13T09:19:18;98548.09;;;19.54;100.00
10921;BME280;5513;50.580;8.818;2022-09-13T09:21:49;98544.28;;;19.32;100.00
10921;BME280;5513;50.580;8.818;2022-09-13T09:24:20;98544.09;;;19.66;100.00
10921;BME280;5513;50.580;8.818;2022-09-13T09:26:49;98541.13;;;20.09;100.00
10921;BME280;5513;50.580;8.818;2022-09-13T09:29:20;98541.81;;;20.02;100.00
10921;BME280;5513;50.580;8.818;2022-09-13T09:32:01;98539.47;;;20.47;100.00
10921;BME280;5513;50.580;8.818;2022-09-13T09:34:47;98530.53;;;20.77;100.00
10921;BME280;5513;50.580;8.818;2022-09-13T09:37:21;98522.88;;;20.66;100.00
10921;BME280;5513;50.580;8.818;2022-09-13T09:39:51;98535.63;;;20.95;100.00
10921;BME280;5513;50.580;8.818;2022-09-13T09:42:22;98535.56;;;21.03;100.00
10921;BME280;5513;50.580;8.818;2022-09-13T09:44:54;98531.50;;;21.30;100.00
10921;BME280;5513;50.580;8.818;2022-09-13T09:47:26;98530.22;;;21.18;100.00
10921;BME280;5513;50.580;8.818;2022-09-13T09:50:02;98521.59;;;21.46;100.00
10921;BME280;5513;50.580;8.818;2022-09-13T09:52:42;98527.78;;;21.08;100.00
10921;BME280;5513;50.580;8.818;2022-09-13T09:55:24;98524.19;;;21.39;100.00
10921;BME280;5513;50.580;8.818;2022-09-13T09:57:55;98524.38;;;21.37;100.00
10921;BME280;5513;50.580;8.818;2022-09-13T10:00:26;98525.31;;;21.22;100.00
10921;BME280;5513;50.580;8.818;2022-09-13T10:02:57;98531.88;;;21.42;100.00
10921;BME280;5513;50.580;8.818;2022-09-13T10:05:28;98535.69;;;21.10;100.00
10921;BME280;5513;50.580;8.818;2022-09-13T10:07:59;98537.69;;;20.62;100.00
10921;BME280;5513;50.580;8.818;2022-09-13T10:10:36;98534.91;;;20.78;100.00
10921;BME280;5513;50.580;8.818;2022-09-13T10:13:12;98522.75;;;20.60;100.00
10921;BME280;5513;50.580;8.818;2022-09-13T10:15:51;98522.34;;;21.17;100.00
10921;BME280;5513;50.580;8.818;2022-09-13T10:18:22;98533.63;;;21.87;100.00
10921;BME280;5513;50.580;8.818;2022-09-13T10:21:21;98531.41;;;22.06;100.00
10921;BME280;5513;50.580;8.818;2022-09-13T10:24:15;98542.59;;;21.50;100.00
10921;BME280;5513;50.580;8.818;2022-09-13T10:26:45;98544.78;;;21.09;100.00
10921;BME280;5513;50.580;8.818;2022-09-13T10:29:15;98536.75;;;20.78;100.00
10921;BME280;5513;50.580;8.818;2022-09-13T10:31:47;98529.41;;;21.18;100.00
10921;BME280;5513;50.580;8.818;2022-09-13T10:34:22;98535.66;;;22.00;100.00
10921;BME280;5513;50.580;8.818;2022-09-13T10:36:58;98538.56;;;21.98;100.00
10921;BME280;5513;50.580;8.818;2022-09-13T10:39:29;98535.84;;;22.43;100.00
10921;BME280;5513;50.580;8.818;2022-09-13T10:42:01;98524.53;;;22.03;100.00
10921;BME280;5513;50.580;8.818;2022-09-13T10:44:32;98522.66;;;22.18;100.00
10921;BME280;5513;50.580;8.818;2022-09-13T10:47:09;98528.88;;;21.89;100.00
10921;BME280;5513;50.580;8.818;2022-09-13T10:49:44;98522.59;;;22.99;100.00
10921;BME280;5513;50.580;8.818;2022-09-13T10:52:29;98528.38;;;23.17;100.00
10921;BME280;5513;50.580;8.818;2022-09-13T10:55:28;98528.88;;;23.06;100.00
10921;BME280;5513;50.580;8.818;2022-09-13T10:58:17;98522.81;;;23.53;100.00
10921;BME280;5513;50.580;8.818;2022-09-13T11:07:23;98520.72;;;24.46;100.00
10921;BME280;5513;50.580;8.818;2022-09-13T11:10:02;98511.41;;;24.62;100.00
10921;BME280;5513;50.580;8.818;2022-09-13T11:12:39;98512.31;;;24.95;100.00
10921;BME280;5513;50.580;8.818;2022-09-13T11:15:18;98517.28;;;24.72;100.00
10921;BME280;5513;50.580;8.818;2022-09-13T11:18:08;98516.06;;;24.94;100.00
10921;BME280;5513;50.580;8.818;2022-09-13T11:20:48;98511.94;;;25.18;100.00
10921;BME280;5513;50.580;8.818;2022-09-13T11:23:42;98498.97;;;25.00;100.00
10921;BME280;5513;50.580;8.818;2022-09-13T11:26:30;98502.78;;;25.32;100.00
10921;BME280;5513;50.580;8.818;2022-09-13T11:29:14;98502.78;;;25.39;100.00
10921;BME280;5513;50.580;8.818;2022-09-13T11:31:55;98496.50;;;25.25;100.00
10921;BME280;5513;50.580;8.818;2022-09-13T11:34:38;98497.97;;;25.28;100.00
10921;BME280;5513;50.580;8.818;2022-09-13T11:37:20;98492.75;;;25.33;100.00
10921;BME280;5513;50.580;8.818;2022-09-13T11:40:02;98485.00;;;24.97;100.00
10921;BME280;5513;50.580;8.818;2022-09-13T11:42:45;98481.91;;;25.06;100.00
10921;BME280;5513;50.580;8.818;2022-09-13T11:45:24;98485.66;;;25.05;100.00
10921;BME280;5513;50.580;8.818;2022-09-13T11:51:04;98483.19;;;25.10;100.00
10921;BME280;5513;50.580;8.818;2022-09-13T11:53:45;98475.44;;;25.14;100.00
10921;BME280;5513;50.580;8.818;2022-09-13T11:56:24;98478.13;;;24.94;100.00
10921;BME280;5513;50.580;8.818;2022-09-13T11:59:03;98461.44;;;24.91;100.00
10921;BME280;5513;50.580;8.818;2022-09-13T12:01:45;98456.03;;;24.91;100.00
10921;BME280;5513;50.580;8.818;2022-09-13T12:04:19;98456.06;;;25.10;100.00
10921;BME280;5513;50.580;8.818;2022-09-13T12:06:53;98457.69;;;24.92;100.00
10921;BME280;5513;50.580;8.818;2022-09-13T12:09:25;98450.00;;;25.15;100.00
10921;BME280;5513;50.580;8.818;2022-09-13T12:12:02;98443.53;;;25.16;100.00
10921;BME280;5513;50.580;8.818;2022-09-13T12:14:40;98444.19;;;25.11;100.00
10921;BME280;5513;50.580;8.818;2022-09-13T12:17:20;98435.19;;;25.44;100.00
10921;BME280;5513;50.580;8.818;2022-09-13T12:19:51;98435.63;;;25.21;100.00
10921;BME280;5513;50.580;8.818;2022-09-13T12:22:22;98435.81;;;25.33;100.00
10921;BME280;5513;50.580;8.818;2022-09-13T12:24:57;98439.53;;;24.72;100.00
10921;BME280;5513;50.580;8.818;2022-09-13T12:27:33;98440.81;;;24.96;100.00
10921;BME280;5513;50.580;8.818;2022-09-13T12:30:14;98437.72;;;25.13;100.00
10921;BME280;5513;50.580;8.818;2022-09-13T12:32:44;98442.88;;;24.74;100.00
10921;BME280;5513;50.580;8.818;2022-09-13T12:35:20;98440.19;;;24.13;100.00
10921;BME280;5513;50.580;8.818;2022-09-13T12:41:05;98433.75;;;23.66;100.00
10921;BME280;5513;50.580;8.818;2022-09-13T12:50:06;98438.16;;;23.46;100.00
10921;BME280;5513;50.580;8.818;2022-09-13T12:53:09;98444.44;;;23.25;100.00
10921;BME280;5513;50.580;8.818;2022-09-13T12:56:00;98440.41;;;23.14;100.00
10921;BME280;5513;50.580;8.818;2022-09-13T12:58:44;98439.22;;;23.17;100.00
10921;BME280;5513;50.580;8.818;2022-09-13T13:01:20;98437.56;;;23.51;100.00
10921;BME280;5513;50.580;8.818;2022-09-13T13:03:53;98429.50;;;23.57;100.00
10921;BME280;5513;50.580;8.818;2022-09-13T13:06:40;98439.22;;;23.17;100.00
10921;BME280;5513;50.580;8.818;2022-09-13T13:09:22;98436.69;;;23.16;100.00
10921;BME280;5513;50.580;8.818;2022-09-13T13:11:57;98427.00;;;23.56;100.00
10921;BME280;5513;50.580;8.818;2022-09-13T13:14:44;98423.56;;;24.16;100.00
10921;BME280;5513;50.580;8.818;2022-09-13T13:17:43;98412.84;;;24.69;100.00
10921;BME280;5513;50.580;8.818;2022-09-13T13:23:31;98407.66;;;25.34;100.00
10921;BME280;5513;50.580;8.818;2022-09-13T13:26:07;98402.97;;;25.87;100.00
10921;BME280;5513;50.580;8.818;2022-09-13T13:29:04;98402.38;;;25.79;100.00
10921;BME280;5513;50.580;8.818;2022-09-13T13:31:37;98401.97;;;25.68;100.00
10921;BME280;5513;50.580;8.818;2022-09-13T13:34:45;98403.50;;;25.18;100.00
10921;BME280;5513;50.580;8.818;2022-09-13T13:37:27;98397.47;;;25.23;100.00
10921;BME280;5513;50.580;8.818;2022-09-13T13:40:20;98389.97;;;25.96;100.00
10921;BME280;5513;50.580;8.818;2022-09-13T13:43:14;98377.75;;;25.74;100.00
10921;BME280;5513;50.580;8.818;2022-09-13T13:45:56;98366.44;;;25.83;100.00
10921;BME280;5513;50.580;8.818;2022-09-13T13:48:36;98365.84;;;25.68;100.00
10921;BME280;5513;50.580;8.818;2022-09-13T13:51:16;98357.81;;;25.42;100.00
10921;BME280;5513;50.580;8.818;2022-09-13T13:53:53;98368.69;;;25.08;100.00
10921;BME280;5513;50.580;8.818;2022-09-13T13:56:52;98376.19;;;25.26;100.00
10921;BME280;5513;50.580;8.818;2022-09-13T13:59:25;98371.59;;;25.27;100.00
10921;BME280;5513;50.580;8.818;2022-09-13T14:01:56;98376.34;;;25.45;100.00
10921;BME280;5513;50.580;8.818;2022-09-13T14:07:56;98362.59;;;25.39;100.00
10921;BME280;5513;50.580;8.818;2022-09-13T14:10:37;98365.06;;;25.54;99.76